Time;durP1;ratioP1;P1;durP2;ratioP2;P2;SDS_P1;SDS_P2;PMS_P1;PMS_P2;Temp;Humidity;BMP_temperature;BMP_pressure;BME280_temperature;BME280_humidity;BME280_pressure;Samples;Min_cycle;Max_cycle;Signal;HPM_P1;HPM_P2
2022/10/27 00:02:17;;;;;;;14.15;11.05;;;3.30;90.70;;;;;;5031335;28;20022;-81
2022/10/27 00:04:42;;;;;;;16.98;10.93;;;3.30;90.70;;;;;;5035143;28;20399;-79
2022/10/27 00:07:08;;;;;;;15.98;11.82;;;3.40;90.70;;;;;;5035355;28;20478;-79
2022/10/27 00:09:34;;;;;;;14.60;11.00;;;3.30;90.60;;;;;;5027976;28;20037;-80
2022/10/27 00:12:00;;;;;;;14.48;11.48;;;3.30;90.60;;;;;;5029768;28;20033;-80
2022/10/27 00:14:26;;;;;;;13.75;10.38;;;3.30;90.60;;;;;;5028800;28;20379;-80
2022/10/27 00:16:54;;;;;;;15.40;11.35;;;3.40;90.70;;;;;;5026801;28;20021;-81
2022/10/27 00:19:21;;;;;;;13.85;11.18;;;3.50;90.60;;;;;;5036016;28;20100;-78
2022/10/27 00:21:47;;;;;;;16.38;11.40;;;3.60;90.60;;;;;;5031523;28;20026;-80
2022/10/27 00:24:13;;;;;;;14.48;9.80;;;3.60;90.40;;;;;;5034240;28;20104;-80
2022/10/27 00:26:39;;;;;;;17.52;11.30;;;3.70;90.20;;;;;;5035560;28;20542;-80
2022/10/27 00:29:04;;;;;;;17.58;10.82;;;3.70;90.10;;;;;;5029635;28;20037;-79
2022/10/27 00:31:30;;;;;;;11.10;9.02;;;3.80;90.10;;;;;;5020017;28;20025;-80
2022/10/27 00:33:56;;;;;;;13.88;10.25;;;3.80;90.10;;;;;;5035145;28;20083;-80
2022/10/27 00:36:24;;;;;;;14.32;10.35;;;3.90;90.00;;;;;;5037544;28;20368;-79
2022/10/27 00:38:57;;;;;;;17.60;8.43;;;3.80;89.80;;;;;;5033662;28;20033;-80
2022/10/27 00:41:31;;;;;;;13.98;9.43;;;3.80;89.60;;;;;;5038613;28;20025;-80
2022/10/27 00:43:59;;;;;;;11.13;7.70;;;3.80;89.60;;;;;;5033512;28;20443;-79
2022/10/27 00:46:40;;;;;;;12.00;7.50;;;3.80;89.60;;;;;;5033359;28;20017;-81
2022/10/27 00:49:12;;;;;;;13.88;9.00;;;3.90;89.60;;;;;;5033587;28;20033;-80
2022/10/27 00:51:52;;;;;;;10.95;8.10;;;3.90;89.40;;;;;;5019162;28;20080;-81
2022/10/27 00:54:20;;;;;;;10.45;7.32;;;3.90;89.20;;;;;;5033250;28;20032;-80
2022/10/27 00:56:49;;;;;;;14.93;6.95;;;3.80;89.10;;;;;;5028871;28;20067;-81
2022/10/27 00:59:16;;;;;;;11.82;7.68;;;3.80;89.20;;;;;;5032726;28;20030;-80
2022/10/27 01:01:43;;;;;;;13.38;8.38;;;3.70;89.30;;;;;;5033496;28;20028;-80
2022/10/27 01:04:09;;;;;;;10.83;7.17;;;3.80;89.30;;;;;;5033577;28;20498;-80
2022/10/27 01:06:35;;;;;;;17.42;8.23;;;3.70;89.30;;;;;;5033897;28;20386;-80
2022/10/27 01:09:03;;;;;;;10.85;6.47;;;3.70;89.40;;;;;;5027120;28;20023;-80
2022/10/27 01:11:29;;;;;;;11.75;7.75;;;3.70;89.30;;;;;;5046759;28;20399;-79
2022/10/27 01:13:55;;;;;;;10.60;6.65;;;3.70;89.30;;;;;;5033420;28;20022;-80
2022/10/27 01:17:00;;;;;;;11.30;7.57;;;3.60;89.50;;;;;;5033934;28;20021;-80
2022/10/27 01:19:41;;;;;;;11.57;7.65;;;3.70;89.80;;;;;;5027096;28;20135;-80
2022/10/27 01:22:32;;;;;;;9.25;7.45;;;3.70;89.70;;;;;;5033001;28;20026;-79
2022/10/27 01:25:17;;;;;;;10.95;8.23;;;3.70;89.60;;;;;;5032988;28;20378;-80
2022/10/27 01:28:19;;;;;;;9.90;8.20;;;3.80;89.40;;;;;;5033255;28;20491;-79
2022/10/27 01:30:57;;;;;;;10.52;7.80;;;3.70;89.40;;;;;;5033656;28;20429;-80
2022/10/27 01:33:26;;;;;;;;;;;3.70;89.50;;;;;;5033681;28;20033;-80
2022/10/27 01:35:58;;;;;;;11.88;8.57;;;3.60;89.40;;;;;;5026511;28;19905;-79
2022/10/27 01:38:36;;;;;;;11.50;8.25;;;3.50;89.80;;;;;;5023377;28;20402;-79
2022/10/27 01:41:06;;;;;;;;;;;3.40;90.10;;;;;;5031491;28;20029;-80
2022/10/27 01:43:34;;;;;;;14.10;7.70;;;3.40;90.10;;;;;;5032886;28;19905;-80
2022/10/27 01:46:04;;;;;;;14.02;7.53;;;3.30;90.20;;;;;;5033549;28;20022;-80
2022/10/27 01:48:33;;;;;;;11.15;7.53;;;3.30;90.40;;;;;;5031989;28;20571;-77
2022/10/27 01:50:59;;;;;;;17.13;8.32;;;3.30;90.50;;;;;;5031270;28;20115;-80
2022/10/27 01:53:26;;;;;;;13.20;8.85;;;3.30;90.60;;;;;;5032433;28;20108;-80
2022/10/27 01:55:54;;;;;;;12.50;7.97;;;3.30;90.60;;;;;;5032633;28;20017;-78
2022/10/27 01:58:35;;;;;;;11.90;7.68;;;3.20;91.00;;;;;;5032382;28;20033;-80
2022/10/27 02:01:30;;;;;;;13.95;8.98;;;3.30;90.80;;;;;;5031383;28;20059;-79
2022/10/27 02:04:13;;;;;;;10.68;7.53;;;3.30;90.80;;;;;;5032251;28;20060;-79
2022/10/27 02:06:38;;;;;;;10.55;7.53;;;3.30;90.80;;;;;;5033517;28;20072;-79
2022/10/27 02:09:12;;;;;;;10.07;7.40;;;3.30;90.80;;;;;;5034197;28;20410;-80
2022/10/27 02:11:43;;;;;;;13.93;7.72;;;3.30;90.90;;;;;;5033440;28;20174;-80
2022/10/27 02:14:10;;;;;;;18.65;7.75;;;3.30;90.90;;;;;;5033983;28;20026;-78
2022/10/27 02:16:46;;;;;;;14.50;7.90;;;3.30;90.90;;;;;;5036310;28;20074;-78
2022/10/27 02:19:28;;;;;;;14.35;8.13;;;3.30;90.90;;;;;;5035642;28;20376;-78
2022/10/27 02:21:58;;;;;;;11.50;8.95;;;3.30;90.90;;;;;;5034024;28;20044;-79
2022/10/27 02:24:25;;;;;;;12.93;7.97;;;3.40;90.90;;;;;;5034060;28;20442;-79
2022/10/27 02:27:09;;;;;;;14.13;7.57;;;3.40;90.80;;;;;;5033569;28;20026;-79
2022/10/27 02:29:45;;;;;;;15.82;7.55;;;3.40;90.80;;;;;;5031262;28;20055;-82
2022/10/27 02:32:14;;;;;;;14.32;7.18;;;3.50;90.80;;;;;;5032532;28;20470;-82
2022/10/27 02:34:42;;;;;;;16.88;8.52;;;3.50;90.80;;;;;;5031851;28;20028;-82
2022/10/27 02:37:08;;;;;;;;;;;3.50;90.80;;;;;;5033220;28;20328;-81
2022/10/27 02:39:34;;;;;;;14.07;8.30;;;3.50;90.70;;;;;;5031766;28;19983;-80
2022/10/27 02:42:02;;;;;;;15.05;7.55;;;3.50;90.70;;;;;;5032324;28;20021;-79
2022/10/27 02:44:28;;;;;;;12.52;7.55;;;3.50;90.70;;;;;;5032002;28;20049;-80
2022/10/27 02:46:55;;;;;;;13.05;7.50;;;3.40;90.60;;;;;;5013686;28;20458;-79
2022/10/27 02:49:21;;;;;;;10.02;7.03;;;3.40;90.70;;;;;;5023980;28;20029;-80
2022/10/27 02:51:46;;;;;;;10.52;7.55;;;3.40;90.80;;;;;;5030591;28;20091;-79
2022/10/27 02:54:12;;;;;;;15.27;8.70;;;3.30;90.80;;;;;;5031777;28;20030;-79
2022/10/27 02:56:38;;;;;;;10.32;7.45;;;3.30;90.90;;;;;;5031889;28;20536;-79
2022/10/27 02:59:04;;;;;;;12.65;8.20;;;3.30;90.90;;;;;;5030486;28;20041;-79
2022/10/27 03:01:30;;;;;;;12.60;8.52;;;3.30;90.90;;;;;;5029713;28;20022;-78
2022/10/27 03:03:55;;;;;;;12.20;7.38;;;3.30;90.90;;;;;;5035709;28;20021;-79
2022/10/27 03:06:21;;;;;;;9.48;7.70;;;3.30;91.00;;;;;;5035731;28;20032;-79
2022/10/27 03:08:47;;;;;;;9.50;7.13;;;3.30;91.10;;;;;;5035376;28;20022;-79
2022/10/27 03:11:13;;;;;;;15.18;7.60;;;3.40;91.00;;;;;;5035445;28;20108;-79
2022/10/27 03:13:39;;;;;;;10.88;6.97;;;3.40;91.00;;;;;;5035209;28;20032;-79
2022/10/27 03:16:05;;;;;;;13.10;9.25;;;3.40;90.90;;;;;;5033939;28;20018;-79
2022/10/27 03:18:31;;;;;;;15.02;7.93;;;3.40;90.80;;;;;;5034926;28;20045;-78
2022/10/27 03:20:57;;;;;;;11.02;6.50;;;3.40;90.80;;;;;;5035223;28;20021;-78
2022/10/27 03:23:23;;;;;;;9.93;7.93;;;3.30;90.80;;;;;;5035385;28;20032;-78
2022/10/27 03:25:49;;;;;;;12.23;6.65;;;3.30;90.90;;;;;;5035361;28;20038;-78
2022/10/27 03:28:15;;;;;;;13.68;7.43;;;3.30;90.90;;;;;;5035600;28;20026;-80
2022/10/27 03:30:41;;;;;;;12.27;7.20;;;3.40;90.90;;;;;;5036753;28;20026;-78
2022/10/27 03:33:06;;;;;;;12.55;8.15;;;3.40;90.90;;;;;;5043515;28;20040;-80
2022/10/27 03:35:32;;;;;;;14.63;7.13;;;3.40;90.90;;;;;;5042494;28;20026;-80
2022/10/27 03:38:00;;;;;;;12.05;7.85;;;3.40;91.00;;;;;;5036288;28;20029;-79
2022/10/27 03:40:27;;;;;;;12.43;7.55;;;3.50;91.00;;;;;;5035434;28;20029;-80
2022/10/27 03:42:57;;;;;;;13.80;7.95;;;3.50;90.80;;;;;;5036271;28;20123;-79
2022/10/27 03:45:25;;;;;;;13.00;8.60;;;3.50;90.80;;;;;;5033803;28;20495;-80
2022/10/27 03:48:11;;;;;;;13.55;8.98;;;3.50;90.90;;;;;;5029030;28;20407;-78
2022/10/27 03:50:38;;;;;;;11.77;7.30;;;3.50;90.90;;;;;;5035276;28;20395;-80
2022/10/27 03:53:05;;;;;;;11.32;7.97;;;3.50;90.90;;;;;;5034581;28;20032;-78
2022/10/27 03:55:31;;;;;;;13.23;7.75;;;3.60;91.00;;;;;;5021683;28;20025;-79
2022/10/27 03:57:58;;;;;;;10.77;7.38;;;3.70;91.00;;;;;;5034546;28;20482;-80
2022/10/27 04:00:24;;;;;;;16.13;8.73;;;3.80;90.90;;;;;;5034669;28;20053;-80
2022/10/27 04:02:54;;;;;;;11.57;7.38;;;3.80;90.80;;;;;;5034669;28;20025;-78
2022/10/27 04:05:21;;;;;;;8.98;6.60;;;3.80;90.80;;;;;;5030313;28;20025;-80
2022/10/27 04:07:46;;;;;;;19.10;9.93;;;3.90;90.80;;;;;;5024812;28;20021;-79
2022/10/27 04:10:13;;;;;;;8.77;6.63;;;4.00;90.80;;;;;;5034402;28;20266;-79
2022/10/27 04:12:46;;;;;;;11.93;7.57;;;4.00;90.60;;;;;;5035020;28;20029;-78
2022/10/27 04:15:12;;;;;;;11.90;7.22;;;3.90;90.60;;;;;;5034833;28;20021;-80
2022/10/27 04:17:38;;;;;;;14.15;9.45;;;3.90;90.60;;;;;;5035226;28;20056;-79
2022/10/27 04:20:04;;;;;;;14.65;7.47;;;3.90;90.70;;;;;;5035023;28;20037;-80
2022/10/27 04:22:30;;;;;;;12.10;7.18;;;3.90;90.70;;;;;;5030279;28;20103;-80
2022/10/27 04:24:56;;;;;;;14.45;8.25;;;3.80;90.70;;;;;;5034830;28;20060;-82
2022/10/27 04:27:22;;;;;;;15.80;8.07;;;3.70;90.80;;;;;;5035732;28;20028;-80
2022/10/27 04:29:47;;;;;;;14.70;8.93;;;3.60;91.10;;;;;;5037899;28;20819;-80
2022/10/27 04:32:13;;;;;;;15.75;8.77;;;3.70;91.40;;;;;;5033736;28;20030;-80
2022/10/27 04:34:39;;;;;;;14.25;8.88;;;3.70;91.20;;;;;;5031490;28;20063;-81
2022/10/27 04:37:05;;;;;;;14.48;8.15;;;3.70;91.20;;;;;;5032378;28;20124;-80
2022/10/27 04:39:31;;;;;;;12.93;7.18;;;3.80;91.20;;;;;;5033616;28;20033;-80
2022/10/27 04:41:57;;;;;;;13.25;8.30;;;3.80;91.20;;;;;;5034555;28;20044;-80
2022/10/27 04:44:23;;;;;;;11.88;8.00;;;3.80;91.30;;;;;;5033344;28;20026;-80
2022/10/27 04:46:48;;;;;;;15.70;8.57;;;3.90;91.30;;;;;;5034400;28;20030;-80
2022/10/27 04:49:14;;;;;;;15.38;9.20;;;4.00;91.20;;;;;;5032945;28;20605;-81
2022/10/27 04:51:40;;;;;;;13.77;8.23;;;4.00;91.20;;;;;;5034155;28;20064;-81
2022/10/27 04:54:06;;;;;;;17.45;8.90;;;4.10;91.20;;;;;;5033644;28;20479;-80
2022/10/27 04:56:32;;;;;;;15.48;8.90;;;4.20;91.20;;;;;;5033435;28;20022;-82
2022/10/27 04:58:58;;;;;;;15.60;8.60;;;4.20;91.20;;;;;;5034902;28;20060;-82
2022/10/27 05:01:24;;;;;;;14.50;8.93;;;4.30;91.20;;;;;;5032352;28;20116;-82
2022/10/27 05:03:49;;;;;;;13.75;8.60;;;4.30;91.20;;;;;;5033902;28;20025;-81
2022/10/27 05:06:16;;;;;;;13.20;8.32;;;4.30;91.10;;;;;;5033832;28;20028;-82
2022/10/27 05:08:42;;;;;;;16.10;9.32;;;4.30;91.10;;;;;;5033823;28;20469;-82
2022/10/27 05:11:07;;;;;;;17.98;8.82;;;4.30;91.20;;;;;;5032620;28;20033;-82
2022/10/27 05:13:33;;;;;;;15.35;8.48;;;4.30;91.20;;;;;;5033923;28;20065;-83
2022/10/27 05:16:03;;;;;;;15.20;8.68;;;4.40;91.10;;;;;;5035370;28;20022;-81
2022/10/27 05:18:30;;;;;;;16.13;8.18;;;4.30;91.20;;;;;;5037329;28;20025;-82
2022/10/27 05:20:56;;;;;;;13.88;8.60;;;4.30;91.30;;;;;;5039982;28;20089;-83
2022/10/27 05:23:22;;;;;;;18.40;9.55;;;4.30;91.40;;;;;;5037708;28;20068;-81
2022/10/27 05:25:52;;;;;;;18.08;9.35;;;4.30;91.50;;;;;;5036129;28;20044;-82
2022/10/27 05:28:18;;;;;;;17.60;10.05;;;4.30;91.60;;;;;;5036909;28;20119;-82
2022/10/27 05:30:43;;;;;;;13.10;9.10;;;4.30;91.60;;;;;;5039533;28;20217;-82
2022/10/27 05:33:09;;;;;;;17.92;9.55;;;4.40;91.50;;;;;;5037102;28;20032;-80
2022/10/27 05:35:38;;;;;;;14.85;9.05;;;4.40;91.40;;;;;;5034521;28;20032;-82
2022/10/27 05:38:04;;;;;;;17.73;10.32;;;4.40;91.40;;;;;;5031583;28;20144;-81
2022/10/27 05:40:33;;;;;;;21.25;10.38;;;4.40;91.50;;;;;;5032929;28;20030;-81
2022/10/27 05:43:00;;;;;;;15.05;9.40;;;4.50;91.60;;;;;;5030303;28;20061;-81
2022/10/27 05:45:26;;;;;;;16.17;9.45;;;4.50;91.60;;;;;;5032829;28;20025;-81
2022/10/27 05:48:03;;;;;;;12.98;8.77;;;4.50;91.70;;;;;;5019206;28;20121;-82
2022/10/27 05:50:29;;;;;;;15.05;9.30;;;4.50;91.80;;;;;;5019800;28;20060;-81
2022/10/27 05:52:56;;;;;;;14.90;10.43;;;4.50;91.70;;;;;;5032517;28;20025;-80
2022/10/27 05:55:23;;;;;;;17.42;9.20;;;4.60;91.70;;;;;;5026893;28;20029;-82
2022/10/27 05:58:00;;;;;;;15.00;10.35;;;4.60;91.80;;;;;;5024723;28;20052;-81
2022/10/27 06:00:31;;;;;;;13.57;8.03;;;4.60;91.80;;;;;;5032432;28;20034;-81
2022/10/27 06:02:59;;;;;;;18.10;9.77;;;4.60;91.70;;;;;;5028937;28;20488;-81
2022/10/27 06:05:26;;;;;;;13.60;9.80;;;4.60;91.70;;;;;;5014313;28;20021;-83
2022/10/27 06:07:52;;;;;;;;;;;4.60;91.80;;;;;;5023836;28;20026;-81
2022/10/27 06:10:18;;;;;;;15.27;9.95;;;4.60;91.70;;;;;;5031000;28;19909;-82
2022/10/27 06:12:44;;;;;;;17.60;9.90;;;4.60;91.80;;;;;;5031857;28;20048;-81
2022/10/27 06:15:10;;;;;;;18.58;9.35;;;4.60;91.80;;;;;;5032747;28;20017;-81
2022/10/27 06:17:36;;;;;;;17.02;10.15;;;4.60;91.80;;;;;;5030908;28;20033;-83
2022/10/27 06:20:02;;;;;;;16.40;9.65;;;4.70;91.90;;;;;;5028408;28;20036;-82
2022/10/27 06:22:29;;;;;;;16.92;11.07;;;4.80;91.90;;;;;;5027209;28;20039;-79
2022/10/27 06:24:55;;;;;;;24.25;10.82;;;4.90;91.70;;;;;;5028268;28;20057;-80
2022/10/27 06:27:20;;;;;;;12.07;9.15;;;4.90;91.70;;;;;;5024035;28;20036;-81
2022/10/27 06:29:46;;;;;;;15.52;8.05;;;5.00;91.70;;;;;;5038011;28;20058;-81
2022/10/27 06:32:12;;;;;;;18.02;8.60;;;5.10;91.50;;;;;;5035462;28;20128;-82
2022/10/27 06:34:38;;;;;;;16.80;8.98;;;5.00;91.60;;;;;;5042244;28;20029;-80
2022/10/27 06:37:04;;;;;;;15.45;7.93;;;5.00;91.60;;;;;;5047609;28;20018;-82
2022/10/27 06:39:31;;;;;;;14.90;8.63;;;5.10;91.40;;;;;;5041612;28;20044;-82
2022/10/27 06:41:57;;;;;;;15.18;9.40;;;5.00;91.40;;;;;;5031445;28;20025;-83
2022/10/27 06:44:26;;;;;;;13.52;9.57;;;4.90;91.40;;;;;;5026740;28;20056;-78
2022/10/27 06:46:52;;;;;;;14.63;9.48;;;4.90;91.70;;;;;;5037999;28;20009;-79
2022/10/27 06:49:18;;;;;;;11.82;9.60;;;5.00;91.70;;;;;;5041562;28;20040;-80
2022/10/27 06:51:44;;;;;;;15.02;9.18;;;5.10;91.60;;;;;;5038479;28;20065;-81
2022/10/27 06:54:10;;;;;;;18.52;9.13;;;5.10;91.50;;;;;;5041204;28;20416;-81
2022/10/27 06:56:36;;;;;;;20.55;9.80;;;5.20;91.50;;;;;;5039346;28;20029;-79
2022/10/27 06:59:05;;;;;;;15.90;9.45;;;5.20;91.40;;;;;;5039335;28;20513;-82
2022/10/27 07:01:31;;;;;;;15.27;9.60;;;5.30;91.40;;;;;;5038082;28;20482;-82
2022/10/27 07:03:57;;;;;;;16.08;9.35;;;5.50;91.40;;;;;;5040325;28;20029;-80
2022/10/27 07:06:23;;;;;;;14.95;9.70;;;5.50;91.20;;;;;;5043867;28;20025;-81
2022/10/27 07:08:51;;;;;;;16.75;9.07;;;5.70;91.10;;;;;;5040389;28;20108;-81
2022/10/27 07:11:18;;;;;;;19.55;10.85;;;5.90;91.00;;;;;;5040184;28;20422;-81
2022/10/27 07:13:44;;;;;;;16.40;9.85;;;6.00;90.70;;;;;;5041205;28;21954;-80
2022/10/27 07:16:10;;;;;;;20.17;9.38;;;6.10;90.40;;;;;;5037327;28;20053;-81
2022/10/27 07:18:37;;;;;;;19.30;10.18;;;6.20;90.30;;;;;;5040687;28;20026;-82
2022/10/27 07:21:04;;;;;;;15.70;9.48;;;6.10;90.10;;;;;;5042289;28;20026;-80
2022/10/27 07:23:30;;;;;;;19.45;9.68;;;6.10;90.20;;;;;;5044373;28;20053;-81
2022/10/27 07:25:56;;;;;;;15.00;8.98;;;6.10;90.20;;;;;;5045329;28;20025;-81
2022/10/27 07:28:24;;;;;;;19.67;9.23;;;6.20;90.20;;;;;;5044889;28;20108;-79
2022/10/27 07:30:54;;;;;;;13.15;8.40;;;6.20;90.20;;;;;;5044618;28;20053;-80
2022/10/27 07:33:21;;;;;;;18.13;8.48;;;6.20;90.10;;;;;;5030078;28;20053;-82
2022/10/27 07:35:52;;;;;;;21.45;10.52;;;6.20;90.00;;;;;;5037874;28;20013;-79
2022/10/27 07:38:19;;;;;;;15.85;9.32;;;6.20;90.00;;;;;;5035868;28;20021;-80
2022/10/27 07:40:45;;;;;;;17.40;8.38;;;6.20;89.90;;;;;;5031598;28;20111;-80
2022/10/27 07:43:11;;;;;;;14.23;8.98;;;6.10;90.00;;;;;;5030395;28;20466;-82
2022/10/27 07:45:39;;;;;;;17.80;9.90;;;6.10;90.10;;;;;;5033189;28;20034;-80
2022/10/27 07:48:09;;;;;;;14.75;9.57;;;6.10;90.20;;;;;;5032461;28;20025;-82
2022/10/27 07:50:35;;;;;;;13.02;9.05;;;6.20;90.30;;;;;;5038077;28;20062;-82
2022/10/27 07:53:02;;;;;;;15.68;9.57;;;6.40;90.10;;;;;;5037592;28;20028;-81
2022/10/27 07:55:35;;;;;;;22.00;10.65;;;6.60;89.70;;;;;;5035081;28;20032;-82
2022/10/27 07:58:11;;;;;;;15.07;8.63;;;6.60;88.90;;;;;;5048602;28;20054;-82
2022/10/27 08:00:44;;;;;;;12.75;8.48;;;6.70;88.60;;;;;;5037653;28;20037;-81
2022/10/27 08:03:20;;;;;;;18.40;10.73;;;6.90;88.40;;;;;;5036677;28;20021;-82
2022/10/27 08:05:47;;;;;;;14.43;9.82;;;7.00;87.90;;;;;;5038190;28;20422;-82
2022/10/27 08:08:14;;;;;;;17.42;10.93;;;7.20;87.60;;;;;;5038113;28;20419;-81
2022/10/27 08:10:41;;;;;;;20.27;12.10;;;7.40;86.90;;;;;;5037720;28;20032;-81
2022/10/27 08:13:10;;;;;;;;;;;7.50;86.50;;;;;;5034822;28;20365;-81
2022/10/27 08:15:38;;;;;;;24.92;13.20;;;7.60;86.60;;;;;;5036511;28;19952;-82
2022/10/27 08:18:04;;;;;;;;;;;7.50;85.50;;;;;;5038036;28;20026;-82
2022/10/27 08:20:34;;;;;;;22.77;12.60;;;7.40;85.90;;;;;;5040450;28;19913;-80
2022/10/27 08:23:03;;;;;;;26.98;13.63;;;7.30;85.80;;;;;;5036813;28;20492;-81
2022/10/27 08:25:30;;;;;;;18.88;11.38;;;7.20;85.60;;;;;;5030090;28;20025;-81
2022/10/27 08:27:57;;;;;;;28.23;12.60;;;7.10;86.20;;;;;;5038603;28;20466;-82
2022/10/27 08:30:25;;;;;;;23.00;12.07;;;7.10;86.40;;;;;;5035263;28;20030;-81
2022/10/27 08:32:56;;;;;;;24.13;11.73;;;7.10;86.90;;;;;;5034147;28;20364;-82
2022/10/27 08:35:22;;;;;;;16.63;10.25;;;7.00;86.40;;;;;;5033965;28;20475;-80
2022/10/27 08:37:48;;;;;;;22.63;10.02;;;7.00;86.50;;;;;;5032622;28;20033;-82
2022/10/27 08:40:14;;;;;;;28.10;12.15;;;6.90;86.70;;;;;;5033766;28;20181;-82
2022/10/27 08:43:30;;;;;;;15.18;9.70;;;6.90;87.00;;;;;;5030537;28;20028;-80
2022/10/27 08:46:08;;;;;;;18.87;10.73;;;7.00;87.30;;;;;;5035913;28;20037;-80
2022/10/27 08:48:36;;;;;;;14.32;8.60;;;7.00;87.10;;;;;;5038611;28;20041;-84
2022/10/27 08:51:03;;;;;;;25.17;9.70;;;6.90;87.10;;;;;;5036318;28;20514;-81
2022/10/27 08:53:34;;;;;;;22.00;10.80;;;6.80;87.50;;;;;;5039531;28;20065;-81
2022/10/27 08:56:10;;;;;;;18.55;10.60;;;6.70;88.00;;;;;;5035521;28;20093;-81
2022/10/27 08:58:44;;;;;;;17.60;9.07;;;6.80;88.10;;;;;;5035975;28;20097;-81
2022/10/27 09:01:37;;;;;;;20.67;10.18;;;6.80;88.30;;;;;;5039154;28;20309;-80
2022/10/27 09:04:10;;;;;;;26.80;10.07;;;6.90;88.40;;;;;;5053209;28;20019;-82
2022/10/27 09:06:56;;;;;;;15.57;9.30;;;6.90;87.90;;;;;;5036410;28;20037;-80
2022/10/27 09:09:30;;;;;;;21.20;10.93;;;6.90;87.90;;;;;;5031783;28;20395;-81
2022/10/27 09:12:16;;;;;;;15.18;10.25;;;6.80;88.30;;;;;;5046936;28;20040;-82
2022/10/27 09:15:14;;;;;;;16.50;10.32;;;6.90;88.50;;;;;;5027485;28;20033;-80
2022/10/27 09:18:21;;;;;;;20.35;9.68;;;7.00;88.40;;;;;;4991020;28;20386;-80
2022/10/27 09:20:54;;;;;;;20.45;10.98;;;7.50;88.50;;;;;;5035119;28;20038;-81
2022/10/27 09:23:37;;;;;;;27.08;11.48;;;8.20;87.30;;;;;;5037520;28;20032;-81
2022/10/27 09:26:03;;;;;;;28.02;13.18;;;8.70;84.80;;;;;;5036593;28;20013;-82
2022/10/27 09:29:05;;;;;;;17.00;10.63;;;8.80;83.30;;;;;;5038107;28;20108;-82
2022/10/27 09:31:58;;;;;;;23.25;11.77;;;8.70;82.70;;;;;;5013729;28;20398;-81
2022/10/27 09:34:37;;;;;;;26.55;11.70;;;8.30;82.60;;;;;;5040425;28;20040;-80
2022/10/27 09:37:12;;;;;;;19.60;10.85;;;7.90;83.70;;;;;;5037619;28;20029;-81
2022/10/27 09:39:50;;;;;;;19.73;11.50;;;7.80;85.00;;;;;;5034374;28;20135;-82
2022/10/27 09:42:17;;;;;;;24.58;11.63;;;8.00;85.50;;;;;;5026251;28;20020;-84
2022/10/27 09:44:54;;;;;;;26.52;12.80;;;8.70;85.00;;;;;;5030632;28;20494;-82
2022/10/27 09:47:23;;;;;;;26.15;11.65;;;9.70;82.90;;;;;;5036141;28;20170;-82
2022/10/27 09:49:52;;;;;;;22.38;12.45;;;10.80;80.30;;;;;;5036995;28;20099;-83
2022/10/27 09:52:42;;;;;;;23.95;12.50;;;12.00;76.70;;;;;;5028529;28;20056;-82
2022/10/27 09:55:08;;;;;;;24.73;12.25;;;13.50;72.50;;;;;;5037655;28;20077;-82
2022/10/27 09:57:38;;;;;;;25.05;13.10;;;14.50;68.30;;;;;;5036365;28;20036;-81
2022/10/27 10:00:16;;;;;;;24.60;14.55;;;15.30;64.00;;;;;;5034460;28;20502;-83
2022/10/27 10:03:02;;;;;;;21.00;12.02;;;15.30;62.50;;;;;;5036388;28;20033;-82
2022/10/27 10:05:36;;;;;;;21.13;13.63;;;14.90;62.20;;;;;;5030210;28;20034;-82
2022/10/27 10:08:24;;;;;;;17.67;12.55;;;14.30;62.90;;;;;;5025822;28;20479;-81
2022/10/27 10:11:00;;;;;;;22.25;14.20;;;13.60;63.60;;;;;;5047100;28;20024;-82
2022/10/27 10:13:29;;;;;;;27.80;15.05;;;12.90;64.60;;;;;;5051542;28;20040;-81
2022/10/27 10:16:14;;;;;;;23.17;14.60;;;12.20;65.90;;;;;;5035097;28;20021;-82
2022/10/27 10:18:44;;;;;;;25.30;14.50;;;11.50;67.70;;;;;;5027220;28;20562;-81
2022/10/27 10:21:12;;;;;;;22.02;14.20;;;11.10;69.20;;;;;;5033546;28;20068;-82
2022/10/27 10:23:47;;;;;;;31.77;16.73;;;10.60;70.30;;;;;;5036985;28;20109;-82
2022/10/27 10:26:22;;;;;;;24.15;16.25;;;10.20;71.50;;;;;;5031160;28;20072;-82
2022/10/27 10:28:53;;;;;;;29.80;17.92;;;9.80;73.10;;;;;;5025824;28;20099;-81
2022/10/27 10:31:25;;;;;;;29.88;17.35;;;9.50;74.10;;;;;;5024766;28;20463;-82
2022/10/27 10:33:54;;;;;;;28.80;16.55;;;9.40;75.20;;;;;;5046651;28;20025;-83
2022/10/27 10:36:33;;;;;;;26.60;16.55;;;9.30;75.60;;;;;;5043271;28;20057;-80
2022/10/27 10:39:21;;;;;;;32.83;17.80;;;9.20;76.10;;;;;;5039754;28;20120;-83
2022/10/27 10:42:12;;;;;;;31.20;18.33;;;9.10;76.50;;;;;;5035329;28;20390;-82
2022/10/27 10:44:38;;;;;;;21.95;15.70;;;9.00;76.80;;;;;;5037269;28;20036;-81
2022/10/27 10:47:17;;;;;;;27.38;16.75;;;8.90;77.40;;;;;;5034685;28;20022;-82
2022/10/27 10:49:49;;;;;;;31.10;17.73;;;8.80;77.90;;;;;;5031180;28;20505;-81
2022/10/27 10:52:19;;;;;;;28.48;18.05;;;8.90;78.00;;;;;;5031867;28;20046;-83
2022/10/27 10:54:46;;;;;;;26.33;16.58;;;8.90;78.30;;;;;;5029621;28;20033;-81
2022/10/27 10:57:31;;;;;;;25.15;16.40;;;8.90;78.40;;;;;;5036320;28;20466;-80
2022/10/27 10:59:57;;;;;;;28.45;18.13;;;9.00;78.30;;;;;;5036479;28;20036;-81
2022/10/27 11:02:32;;;;;;;30.13;17.65;;;9.00;78.10;;;;;;5038692;28;20025;-81
2022/10/27 11:05:10;;;;;;;21.77;17.52;;;9.00;78.80;;;;;;5039637;28;20029;-81
2022/10/27 11:07:36;;;;;;;29.80;19.27;;;8.90;78.30;;;;;;5034726;28;20030;-81
2022/10/27 11:10:31;;;;;;;25.17;17.60;;;8.90;78.30;;;;;;5034235;28;20025;-82
2022/10/27 11:13:33;;;;;;;36.38;18.95;;;8.80;78.70;;;;;;5034840;28;20048;-81
2022/10/27 11:16:07;;;;;;;30.90;18.00;;;8.80;78.90;;;;;;5044220;28;20033;-80
2022/10/27 11:18:53;;;;;;;29.88;19.33;;;8.70;79.00;;;;;;5035374;28;20127;-82
2022/10/27 11:21:37;;;;;;;26.60;17.30;;;8.70;79.40;;;;;;5038452;28;20029;-82
2022/10/27 11:24:29;;;;;;;26.88;18.20;;;8.60;79.80;;;;;;5027560;28;20601;-82
2022/10/27 11:27:05;;;;;;;28.10;17.30;;;8.60;79.90;;;;;;5038888;28;20109;-80
2022/10/27 11:29:52;;;;;;;28.35;18.73;;;8.40;80.00;;;;;;5026055;28;20021;-83
2022/10/27 11:32:43;;;;;;;26.00;17.70;;;8.20;80.90;;;;;;5026949;28;20391;-83
2022/10/27 11:35:24;;;;;;;29.88;19.48;;;8.10;81.30;;;;;;5039261;28;20508;-82
2022/10/27 11:37:55;;;;;;;28.52;18.08;;;8.00;81.90;;;;;;5040242;28;20033;-81
2022/10/27 11:40:43;;;;;;;30.60;19.77;;;7.90;82.20;;;;;;5043752;28;20109;-80
2022/10/27 11:43:20;;;;;;;41.13;23.38;;;8.00;82.80;;;;;;5041520;28;20022;-82
2022/10/27 11:46:06;;;;;;;32.50;20.40;;;8.00;82.90;;;;;;5038696;28;20452;-84
2022/10/27 11:49:00;;;;;;;32.47;20.13;;;8.00;82.80;;;;;;5039671;28;20033;-81
2022/10/27 11:51:35;;;;;;;31.52;21.58;;;8.00;82.90;;;;;;5035452;28;20045;-81
2022/10/27 11:54:02;;;;;;;31.13;20.00;;;7.90;83.30;;;;;;5037833;28;20498;-81
2022/10/27 11:56:43;;;;;;;33.97;20.43;;;8.00;83.50;;;;;;5035745;28;20658;-81
2022/10/27 11:59:24;;;;;;;35.97;22.13;;;8.00;83.60;;;;;;5034020;28;20236;-80
2022/10/27 12:01:52;;;;;;;39.33;24.77;;;7.90;83.70;;;;;;5034245;28;20052;-81
2022/10/27 12:04:47;;;;;;;33.03;23.88;;;7.80;84.00;;;;;;5027851;28;20072;-81
2022/10/27 12:07:37;;;;;;;39.25;24.58;;;7.60;84.10;;;;;;5037974;28;20388;-82
2022/10/27 12:10:20;;;;;;;40.28;23.40;;;7.50;84.70;;;;;;5024013;28;20026;-82
2022/10/27 12:12:53;;;;;;;37.38;24.90;;;7.30;85.40;;;;;;5034247;28;20018;-82
2022/10/27 12:15:40;;;;;;;30.55;22.08;;;7.10;86.00;;;;;;5034707;28;20029;-80
2022/10/27 12:18:24;;;;;;;;;;;7.00;86.60;;;;;;5039655;28;20028;-81
2022/10/27 12:21:04;;;;;;;39.67;26.00;;;6.80;86.40;;;;;;5053960;28;19948;-81
2022/10/27 12:23:37;;;;;;;37.05;24.27;;;6.70;87.70;;;;;;5048133;28;20117;-81
2022/10/27 12:26:29;;;;;;;40.83;25.05;;;6.60;88.20;;;;;;5033446;28;20029;-81
2022/10/27 12:28:57;;;;;;;34.83;23.65;;;6.60;88.70;;;;;;5043259;28;20397;-81
2022/10/27 12:31:27;;;;;;;35.20;24.92;;;6.60;89.10;;;;;;5037495;28;20549;-81
2022/10/27 12:33:56;;;;;;;41.17;23.45;;;6.60;89.50;;;;;;5037792;28;20029;-81
2022/10/27 12:36:35;;;;;;;36.28;24.48;;;6.60;89.80;;;;;;5036503;28;20379;-81
2022/10/27 12:39:31;;;;;;;42.72;23.52;;;6.50;90.00;;;;;;5037043;28;20041;-80
2022/10/27 12:41:56;;;;;;;29.45;20.60;;;6.50;90.20;;;;;;5037220;28;20021;-83
2022/10/27 12:44:43;;;;;;;31.80;21.65;;;6.40;90.50;;;;;;5033333;28;20029;-81
2022/10/27 12:47:18;;;;;;;32.60;20.08;;;6.40;90.50;;;;;;5026676;28;20117;-81
2022/10/27 12:49:58;;;;;;;35.47;22.83;;;6.40;90.60;;;;;;5023372;28;20069;-82
2022/10/27 12:52:30;;;;;;;28.33;16.98;;;6.40;90.80;;;;;;5024966;28;20080;-83
2022/10/27 12:55:11;;;;;;;34.85;19.33;;;6.30;90.90;;;;;;5045535;28;20096;-82
2022/10/27 12:57:55;;;;;;;29.42;18.75;;;6.30;91.10;;;;;;5042086;28;20025;-82
2022/10/27 13:00:22;;;;;;;33.50;17.90;;;6.20;91.20;;;;;;5057041;28;20139;-80
2022/10/27 13:03:22;;;;;;;32.08;20.05;;;6.20;91.30;;;;;;5027704;28;20026;-82
2022/10/27 13:06:09;;;;;;;26.52;18.65;;;6.10;91.40;;;;;;5041867;28;20383;-81
2022/10/27 13:09:11;;;;;;;30.73;19.67;;;6.10;91.50;;;;;;5025516;28;20022;-81
2022/10/27 13:11:46;;;;;;;31.65;19.13;;;6.10;91.60;;;;;;5028833;28;20041;-82